Browndell, Texas
Current Conditions -  °F | °C
As of 8:35 PM on Wednesday 17 Dec 2014 (Local Time) from KJAS Reporting Station
Broken Clouds Broken Clouds  
Wind Chill: 52°   Ceiling: 9500
Heat Index: 52°   Visibility: 10mi
Dew Point: 45°   Wind: 0mph
Humidity: 77%   Direction: NA
Pressure: 30.17"   Gusts: NA
Location:  31.0971°N, 93.969°W
Report Text: KJAS 180235Z AUTO 00000KT 10SM BKN095 11/07 A3017 RMK AO2 T01120073
Loading
Personal Weather Stations






























Interactive Weather Map New forecast layout! Learn more

10-Day Weather Forecast

Advertisements
Track Severe Weather on mobile